sensor_id;sensor_type;location;lat;lon;timestamp;P1;durP1;ratioP1;P2;durP2;ratioP2
75984;SDS011;65033;44.660;37.758;2023-08-31T00:00:19;12.02;;;9.05;;
75984;SDS011;65033;44.660;37.758;2023-08-31T00:01:24;12.10;;;9.55;;
75984;SDS011;65033;44.660;37.758;2023-08-31T00:02:28;9.88;;;8.73;;
75984;SDS011;65033;44.660;37.758;2023-08-31T00:03:33;10.50;;;8.77;;
75984;SDS011;65033;44.660;37.758;2023-08-31T00:04:36;8.98;;;8.02;;
75984;SDS011;65033;44.660;37.758;2023-08-31T00:05:40;10.40;;;8.65;;
75984;SDS011;65033;44.660;37.758;2023-08-31T00:06:44;9.50;;;8.68;;
75984;SDS011;65033;44.660;37.758;2023-08-31T00:07:49;11.90;;;9.10;;
75984;SDS011;65033;44.660;37.758;2023-08-31T00:08:52;10.50;;;8.75;;
75984;SDS011;65033;44.660;37.758;2023-08-31T00:09:56;11.05;;;8.75;;
75984;SDS011;65033;44.660;37.758;2023-08-31T00:10:59;12.38;;;9.40;;
75984;SDS011;65033;44.660;37.758;2023-08-31T00:12:03;9.45;;;8.55;;
75984;SDS011;65033;44.660;37.758;2023-08-31T00:13:07;12.35;;;11.10;;
75984;SDS011;65033;44.660;37.758;2023-08-31T00:14:10;11.75;;;10.27;;
75984;SDS011;65033;44.660;37.758;2023-08-31T00:15:14;13.05;;;10.25;;
75984;SDS011;65033;44.660;37.758;2023-08-31T00:16:17;13.68;;;10.45;;
75984;SDS011;65033;44.660;37.758;2023-08-31T00:17:27;13.90;;;11.60;;
75984;SDS011;65033;44.660;37.758;2023-08-31T00:18:32;13.23;;;10.55;;
75984;SDS011;65033;44.660;37.758;2023-08-31T00:19:36;12.90;;;11.57;;
75984;SDS011;65033;44.660;37.758;2023-08-31T00:20:40;13.25;;;11.82;;
75984;SDS011;65033;44.660;37.758;2023-08-31T00:21:43;10.65;;;9.38;;
75984;SDS011;65033;44.660;37.758;2023-08-31T00:22:46;11.85;;;9.15;;
75984;SDS011;65033;44.660;37.758;2023-08-31T00:23:50;11.32;;;9.10;;
75984;SDS011;65033;44.660;37.758;2023-08-31T00:24:54;10.40;;;9.07;;
75984;SDS011;65033;44.660;37.758;2023-08-31T00:25:57;10.43;;;9.02;;
75984;SDS011;65033;44.660;37.758;2023-08-31T00:27:00;13.05;;;9.23;;
75984;SDS011;65033;44.660;37.758;2023-08-31T00:28:05;9.20;;;8.40;;
75984;SDS011;65033;44.660;37.758;2023-08-31T00:29:10;12.95;;;9.90;;
75984;SDS011;65033;44.660;37.758;2023-08-31T00:30:14;9.95;;;8.85;;
75984;SDS011;65033;44.660;37.758;2023-08-31T00:31:17;10.05;;;9.18;;
75984;SDS011;65033;44.660;37.758;2023-08-31T00:32:21;10.93;;;9.25;;
75984;SDS011;65033;44.660;37.758;2023-08-31T00:33:26;9.38;;;8.43;;
75984;SDS011;65033;44.660;37.758;2023-08-31T00:34:30;12.68;;;8.85;;
75984;SDS011;65033;44.660;37.758;2023-08-31T00:35:34;14.45;;;8.82;;
75984;SDS011;65033;44.660;37.758;2023-08-31T00:36:38;10.27;;;9.20;;
75984;SDS011;65033;44.660;37.758;2023-08-31T00:37:41;12.52;;;9.73;;
75984;SDS011;65033;44.660;37.758;2023-08-31T00:38:44;10.52;;;9.60;;
75984;SDS011;65033;44.660;37.758;2023-08-31T00:39:47;11.50;;;9.82;;
75984;SDS011;65033;44.660;37.758;2023-08-31T00:40:54;10.75;;;9.63;;
75984;SDS011;65033;44.660;37.758;2023-08-31T00:41:57;14.20;;;10.10;;
75984;SDS011;65033;44.660;37.758;2023-08-31T00:43:01;11.23;;;9.95;;
75984;SDS011;65033;44.660;37.758;2023-08-31T00:44:05;13.40;;;9.95;;
75984;SDS011;65033;44.660;37.758;2023-08-31T00:45:09;14.38;;;10.10;;
75984;SDS011;65033;44.660;37.758;2023-08-31T00:46:13;12.65;;;9.82;;
75984;SDS011;65033;44.660;37.758;2023-08-31T00:47:17;11.45;;;10.05;;
75984;SDS011;65033;44.660;37.758;2023-08-31T00:48:22;12.07;;;10.77;;
75984;SDS011;65033;44.660;37.758;2023-08-31T00:49:26;14.70;;;11.35;;
75984;SDS011;65033;44.660;37.758;2023-08-31T00:50:31;14.43;;;11.02;;
75984;SDS011;65033;44.660;37.758;2023-08-31T00:51:36;12.43;;;11.13;;
75984;SDS011;65033;44.660;37.758;2023-08-31T00:52:40;14.90;;;11.75;;
75984;SDS011;65033;44.660;37.758;2023-08-31T00:53:44;12.27;;;11.00;;
75984;SDS011;65033;44.660;37.758;2023-08-31T00:54:48;12.82;;;11.38;;
75984;SDS011;65033;44.660;37.758;2023-08-31T00:55:55;14.55;;;12.25;;
75984;SDS011;65033;44.660;37.758;2023-08-31T00:56:59;14.98;;;13.10;;
75984;SDS011;65033;44.660;37.758;2023-08-31T00:58:03;13.15;;;10.77;;
75984;SDS011;65033;44.660;37.758;2023-08-31T00:59:07;12.18;;;10.70;;
75984;SDS011;65033;44.660;37.758;2023-08-31T01:00:12;11.23;;;10.13;;
75984;SDS011;65033;44.660;37.758;2023-08-31T01:01:18;13.32;;;11.98;;
75984;SDS011;65033;44.660;37.758;2023-08-31T01:02:30;12.15;;;10.63;;
75984;SDS011;65033;44.660;37.758;2023-08-31T01:03:50;12.88;;;11.55;;
75984;SDS011;65033;44.660;37.758;2023-08-31T01:05:03;15.43;;;11.10;;
75984;SDS011;65033;44.660;37.758;2023-08-31T01:06:16;13.82;;;10.77;;
75984;SDS011;65033;44.660;37.758;2023-08-31T01:07:31;13.95;;;11.57;;
75984;SDS011;65033;44.660;37.758;2023-08-31T01:08:43;12.57;;;10.48;;
75984;SDS011;65033;44.660;37.758;2023-08-31T01:09:57;14.68;;;11.48;;
75984;SDS011;65033;44.660;37.758;2023-08-31T01:11:07;12.98;;;11.23;;
75984;SDS011;65033;44.660;37.758;2023-08-31T01:12:22;11.82;;;10.45;;
75984;SDS011;65033;44.660;37.758;2023-08-31T01:13:32;12.48;;;11.38;;
75984;SDS011;65033;44.660;37.758;2023-08-31T01:14:38;15.20;;;11.10;;
75984;SDS011;65033;44.660;37.758;2023-08-31T01:15:56;15.73;;;10.05;;
75984;SDS011;65033;44.660;37.758;2023-08-31T01:17:06;13.15;;;10.90;;
75984;SDS011;65033;44.660;37.758;2023-08-31T01:18:11;15.50;;;11.73;;
75984;SDS011;65033;44.660;37.758;2023-08-31T01:19:23;16.40;;;11.98;;
75984;SDS011;65033;44.660;37.758;2023-08-31T01:20:42;13.45;;;9.43;;
75984;SDS011;65033;44.660;37.758;2023-08-31T01:21:54;9.75;;;8.82;;
75984;SDS011;65033;44.660;37.758;2023-08-31T01:23:01;10.52;;;9.35;;
75984;SDS011;65033;44.660;37.758;2023-08-31T01:24:08;11.15;;;9.65;;
75984;SDS011;65033;44.660;37.758;2023-08-31T01:25:12;15.25;;;13.63;;
75984;SDS011;65033;44.660;37.758;2023-08-31T01:26:16;13.55;;;11.85;;
75984;SDS011;65033;44.660;37.758;2023-08-31T01:27:20;12.93;;;11.63;;
75984;SDS011;65033;44.660;37.758;2023-08-31T01:28:24;15.80;;;11.02;;
75984;SDS011;65033;44.660;37.758;2023-08-31T01:29:29;13.57;;;11.40;;
75984;SDS011;65033;44.660;37.758;2023-08-31T01:30:33;15.15;;;11.63;;
75984;SDS011;65033;44.660;37.758;2023-08-31T01:31:41;15.18;;;11.77;;
75984;SDS011;65033;44.660;37.758;2023-08-31T01:32:45;14.80;;;12.13;;
75984;SDS011;65033;44.660;37.758;2023-08-31T01:35:42;19.95;;;13.00;;
75984;SDS011;65033;44.660;37.758;2023-08-31T01:36:50;15.95;;;10.85;;
75984;SDS011;65033;44.660;37.758;2023-08-31T01:38:01;13.52;;;12.13;;
75984;SDS011;65033;44.660;37.758;2023-08-31T01:39:14;13.27;;;11.52;;
75984;SDS011;65033;44.660;37.758;2023-08-31T01:40:22;12.88;;;11.13;;
75984;SDS011;65033;44.660;37.758;2023-08-31T01:41:30;11.70;;;10.35;;
75984;SDS011;65033;44.660;37.758;2023-08-31T01:42:37;16.17;;;12.45;;
75984;SDS011;65033;44.660;37.758;2023-08-31T01:43:42;13.18;;;11.77;;
75984;SDS011;65033;44.660;37.758;2023-08-31T01:44:47;13.25;;;11.95;;
75984;SDS011;65033;44.660;37.758;2023-08-31T01:45:52;17.77;;;13.60;;
75984;SDS011;65033;44.660;37.758;2023-08-31T01:47:02;13.73;;;12.25;;
75984;SDS011;65033;44.660;37.758;2023-08-31T01:48:08;14.98;;;11.10;;
75984;SDS011;65033;44.660;37.758;2023-08-31T01:49:12;11.38;;;10.27;;
75984;SDS011;65033;44.660;37.758;2023-08-31T01:50:16;11.43;;;10.20;;
75984;SDS011;65033;44.660;37.758;2023-08-31T01:51:20;11.85;;;10.68;;
75984;SDS011;65033;44.660;37.758;2023-08-31T01:52:23;13.63;;;10.77;;
75984;SDS011;65033;44.660;37.758;2023-08-31T01:53:27;11.57;;;10.55;;
75984;SDS011;65033;44.660;37.758;2023-08-31T01:54:32;13.65;;;11.50;;
75984;SDS011;65033;44.660;37.758;2023-08-31T01:55:35;16.20;;;11.80;;
75984;SDS011;65033;44.660;37.758;2023-08-31T01:56:39;18.73;;;12.57;;
75984;SDS011;65033;44.660;37.758;2023-08-31T01:57:43;16.40;;;12.07;;
75984;SDS011;65033;44.660;37.758;2023-08-31T01:58:51;15.13;;;12.95;;
75984;SDS011;65033;44.660;37.758;2023-08-31T01:59:55;14.65;;;12.60;;
75984;SDS011;65033;44.660;37.758;2023-08-31T02:00:58;16.90;;;12.70;;
75984;SDS011;65033;44.660;37.758;2023-08-31T02:02:03;15.43;;;13.60;;
75984;SDS011;65033;44.660;37.758;2023-08-31T02:03:07;14.80;;;13.30;;
75984;SDS011;65033;44.660;37.758;2023-08-31T02:04:10;13.60;;;12.20;;
75984;SDS011;65033;44.660;37.758;2023-08-31T02:05:14;14.23;;;12.88;;
75984;SDS011;65033;44.660;37.758;2023-08-31T02:06:17;15.13;;;13.15;;
75984;SDS011;65033;44.660;37.758;2023-08-31T02:07:20;17.13;;;13.80;;
75984;SDS011;65033;44.660;37.758;2023-08-31T02:08:24;14.70;;;13.18;;
75984;SDS011;65033;44.660;37.758;2023-08-31T02:09:27;11.63;;;10.45;;
75984;SDS011;65033;44.660;37.758;2023-08-31T02:10:32;12.80;;;11.23;;
75984;SDS011;65033;44.660;37.758;2023-08-31T02:11:35;13.13;;;10.88;;
75984;SDS011;65033;44.660;37.758;2023-08-31T02:12:40;15.13;;;12.93;;
75984;SDS011;65033;44.660;37.758;2023-08-31T02:13:43;15.00;;;13.27;;
75984;SDS011;65033;44.660;37.758;2023-08-31T02:14:47;12.93;;;11.63;;
75984;SDS011;65033;44.660;37.758;2023-08-31T02:15:51;14.30;;;12.75;;
75984;SDS011;65033;44.660;37.758;2023-08-31T02:16:54;19.15;;;14.60;;
75984;SDS011;65033;44.660;37.758;2023-08-31T02:17:58;14.18;;;12.52;;
75984;SDS011;65033;44.660;37.758;2023-08-31T02:19:01;12.70;;;11.15;;
75984;SDS011;65033;44.660;37.758;2023-08-31T02:20:05;14.70;;;12.52;;
75984;SDS011;65033;44.660;37.758;2023-08-31T02:21:10;12.18;;;10.82;;
75984;SDS011;65033;44.660;37.758;2023-08-31T02:22:16;15.82;;;11.93;;
75984;SDS011;65033;44.660;37.758;2023-08-31T02:23:22;13.00;;;11.73;;
75984;SDS011;65033;44.660;37.758;2023-08-31T02:24:25;12.00;;;10.43;;
75984;SDS011;65033;44.660;37.758;2023-08-31T02:25:28;15.10;;;11.43;;
75984;SDS011;65033;44.660;37.758;2023-08-31T02:26:34;14.13;;;12.55;;
75984;SDS011;65033;44.660;37.758;2023-08-31T02:27:39;18.80;;;15.55;;
75984;SDS011;65033;44.660;37.758;2023-08-31T02:28:44;17.20;;;14.75;;
75984;SDS011;65033;44.660;37.758;2023-08-31T02:29:47;19.50;;;15.43;;
75984;SDS011;65033;44.660;37.758;2023-08-31T02:30:57;18.33;;;15.48;;
75984;SDS011;65033;44.660;37.758;2023-08-31T02:32:05;18.33;;;14.60;;
75984;SDS011;65033;44.660;37.758;2023-08-31T02:33:09;16.63;;;13.52;;
75984;SDS011;65033;44.660;37.758;2023-08-31T02:34:14;17.45;;;15.65;;
75984;SDS011;65033;44.660;37.758;2023-08-31T02:35:17;16.40;;;14.75;;
75984;SDS011;65033;44.660;37.758;2023-08-31T02:36:20;19.55;;;16.00;;
75984;SDS011;65033;44.660;37.758;2023-08-31T02:37:23;17.80;;;15.52;;
75984;SDS011;65033;44.660;37.758;2023-08-31T02:38:27;17.15;;;15.35;;
75984;SDS011;65033;44.660;37.758;2023-08-31T02:39:30;17.45;;;15.25;;
75984;SDS011;65033;44.660;37.758;2023-08-31T02:40:34;16.02;;;14.30;;
75984;SDS011;65033;44.660;37.758;2023-08-31T02:41:38;18.70;;;16.33;;
75984;SDS011;65033;44.660;37.758;2023-08-31T02:42:42;16.80;;;13.85;;
75984;SDS011;65033;44.660;37.758;2023-08-31T02:43:45;16.75;;;14.10;;
75984;SDS011;65033;44.660;37.758;2023-08-31T02:44:51;17.23;;;15.07;;
75984;SDS011;65033;44.660;37.758;2023-08-31T02:45:59;15.57;;;14.07;;
75984;SDS011;65033;44.660;37.758;2023-08-31T02:47:04;16.13;;;14.45;;
75984;SDS011;65033;44.660;37.758;2023-08-31T02:48:07;16.60;;;14.95;;
75984;SDS011;65033;44.660;37.758;2023-08-31T02:49:10;21.48;;;16.15;;
75984;SDS011;65033;44.660;37.758;2023-08-31T02:50:16;17.67;;;14.88;;
75984;SDS011;65033;44.660;37.758;2023-08-31T02:51:19;20.50;;;16.73;;
75984;SDS011;65033;44.660;37.758;2023-08-31T02:52:22;19.25;;;16.17;;
75984;SDS011;65033;44.660;37.758;2023-08-31T02:53:26;21.27;;;17.30;;
75984;SDS011;65033;44.660;37.758;2023-08-31T02:54:29;19.98;;;17.35;;
75984;SDS011;65033;44.660;37.758;2023-08-31T02:55:32;20.23;;;17.65;;
75984;SDS011;65033;44.660;37.758;2023-08-31T02:56:36;20.92;;;18.10;;
75984;SDS011;65033;44.660;37.758;2023-08-31T02:57:41;16.98;;;14.35;;
75984;SDS011;65033;44.660;37.758;2023-08-31T02:58:44;18.33;;;15.65;;
75984;SDS011;65033;44.660;37.758;2023-08-31T02:59:49;20.10;;;16.40;;
75984;SDS011;65033;44.660;37.758;2023-08-31T03:00:53;20.50;;;16.85;;
75984;SDS011;65033;44.660;37.758;2023-08-31T03:01:59;19.98;;;17.08;;
75984;SDS011;65033;44.660;37.758;2023-08-31T03:03:03;23.08;;;16.75;;
75984;SDS011;65033;44.660;37.758;2023-08-31T03:04:09;23.38;;;17.15;;
75984;SDS011;65033;44.660;37.758;2023-08-31T03:05:12;18.95;;;17.02;;
75984;SDS011;65033;44.660;37.758;2023-08-31T03:06:17;20.25;;;16.75;;
75984;SDS011;65033;44.660;37.758;2023-08-31T03:07:20;19.38;;;16.02;;
75984;SDS011;65033;44.660;37.758;2023-08-31T03:08:24;20.92;;;15.80;;
75984;SDS011;65033;44.660;37.758;2023-08-31T03:09:27;19.73;;;16.40;;
75984;SDS011;65033;44.660;37.758;2023-08-31T03:10:31;20.10;;;18.08;;
75984;SDS011;65033;44.660;37.758;2023-08-31T03:11:34;17.77;;;15.90;;
75984;SDS011;65033;44.660;37.758;2023-08-31T03:12:39;19.52;;;16.92;;
75984;SDS011;65033;44.660;37.758;2023-08-31T03:13:43;20.15;;;17.55;;
75984;SDS011;65033;44.660;37.758;2023-08-31T03:14:48;21.90;;;16.77;;
75984;SDS011;65033;44.660;37.758;2023-08-31T03:15:52;17.80;;;15.95;;
75984;SDS011;65033;44.660;37.758;2023-08-31T03:16:56;20.65;;;17.30;;
75984;SDS011;65033;44.660;37.758;2023-08-31T03:17:59;19.67;;;15.63;;
75984;SDS011;65033;44.660;37.758;2023-08-31T03:19:03;21.50;;;16.30;;
75984;SDS011;65033;44.660;37.758;2023-08-31T03:20:07;18.65;;;16.42;;
75984;SDS011;65033;44.660;37.758;2023-08-31T03:21:12;18.45;;;16.10;;
75984;SDS011;65033;44.660;37.758;2023-08-31T03:22:15;17.80;;;15.95;;
75984;SDS011;65033;44.660;37.758;2023-08-31T03:23:19;18.35;;;16.45;;
75984;SDS011;65033;44.660;37.758;2023-08-31T03:24:22;17.20;;;15.23;;
75984;SDS011;65033;44.660;37.758;2023-08-31T03:25:27;20.33;;;16.55;;
75984;SDS011;65033;44.660;37.758;2023-08-31T03:26:30;20.25;;;17.20;;
75984;SDS011;65033;44.660;37.758;2023-08-31T03:27:34;18.17;;;16.38;;
75984;SDS011;65033;44.660;37.758;2023-08-31T03:28:40;18.58;;;16.75;;
75984;SDS011;65033;44.660;37.758;2023-08-31T03:29:43;22.77;;;16.35;;
75984;SDS011;65033;44.660;37.758;2023-08-31T03:30:53;19.05;;;16.70;;
75984;SDS011;65033;44.660;37.758;2023-08-31T03:31:57;22.20;;;17.23;;
75984;SDS011;65033;44.660;37.758;2023-08-31T03:33:02;20.48;;;16.83;;
75984;SDS011;65033;44.660;37.758;2023-08-31T03:34:06;19.05;;;16.33;;
75984;SDS011;65033;44.660;37.758;2023-08-31T03:35:10;20.45;;;17.10;;
75984;SDS011;65033;44.660;37.758;2023-08-31T03:36:14;20.35;;;16.95;;
75984;SDS011;65033;44.660;37.758;2023-08-31T03:37:18;19.42;;;17.42;;
75984;SDS011;65033;44.660;37.758;2023-08-31T03:38:24;20.73;;;16.45;;
75984;SDS011;65033;44.660;37.758;2023-08-31T03:39:27;18.92;;;16.90;;
75984;SDS011;65033;44.660;37.758;2023-08-31T03:40:31;19.73;;;17.02;;
75984;SDS011;65033;44.660;37.758;2023-08-31T03:41:34;22.30;;;16.48;;
75984;SDS011;65033;44.660;37.758;2023-08-31T03:42:41;20.20;;;18.08;;
75984;SDS011;65033;44.660;37.758;2023-08-31T03:43:50;20.25;;;15.82;;
75984;SDS011;65033;44.660;37.758;2023-08-31T03:44:57;19.73;;;15.63;;
75984;SDS011;65033;44.660;37.758;2023-08-31T03:46:00;17.20;;;15.40;;
75984;SDS011;65033;44.660;37.758;2023-08-31T03:47:04;18.83;;;16.63;;
75984;SDS011;65033;44.660;37.758;2023-08-31T03:48:08;20.42;;;17.10;;
75984;SDS011;65033;44.660;37.758;2023-08-31T03:49:15;19.52;;;16.65;;
75984;SDS011;65033;44.660;37.758;2023-08-31T03:50:20;21.58;;;16.50;;
75984;SDS011;65033;44.660;37.758;2023-08-31T03:52:47;19.48;;;15.88;;
75984;SDS011;65033;44.660;37.758;2023-08-31T03:53:50;23.88;;;16.50;;
75984;SDS011;65033;44.660;37.758;2023-08-31T03:54:54;20.25;;;15.25;;
75984;SDS011;65033;44.660;37.758;2023-08-31T03:55:59;19.27;;;15.77;;
75984;SDS011;65033;44.660;37.758;2023-08-31T03:57:05;21.48;;;15.15;;
75984;SDS011;65033;44.660;37.758;2023-08-31T03:58:08;19.67;;;15.07;;
75984;SDS011;65033;44.660;37.758;2023-08-31T03:59:13;22.50;;;16.20;;
75984;SDS011;65033;44.660;37.758;2023-08-31T04:00:17;17.58;;;15.77;;
75984;SDS011;65033;44.660;37.758;2023-08-31T04:01:28;22.63;;;15.35;;
75984;SDS011;65033;44.660;37.758;2023-08-31T04:02:32;18.23;;;16.25;;
75984;SDS011;65033;44.660;37.758;2023-08-31T04:03:37;22.02;;;15.63;;
75984;SDS011;65033;44.660;37.758;2023-08-31T04:04:40;23.90;;;16.92;;
75984;SDS011;65033;44.660;37.758;2023-08-31T04:05:44;22.88;;;16.50;;
75984;SDS011;65033;44.660;37.758;2023-08-31T04:06:48;21.70;;;16.02;;
75984;SDS011;65033;44.660;37.758;2023-08-31T04:07:51;22.98;;;15.88;;
75984;SDS011;65033;44.660;37.758;2023-08-31T04:08:55;18.20;;;15.52;;
75984;SDS011;65033;44.660;37.758;2023-08-31T04:09:59;19.40;;;15.20;;
75984;SDS011;65033;44.660;37.758;2023-08-31T04:11:03;16.70;;;14.95;;
75984;SDS011;65033;44.660;37.758;2023-08-31T04:12:06;20.48;;;16.05;;
75984;SDS011;65033;44.660;37.758;2023-08-31T04:13:10;21.15;;;15.13;;
75984;SDS011;65033;44.660;37.758;2023-08-31T04:14:15;21.55;;;15.77;;
75984;SDS011;65033;44.660;37.758;2023-08-31T04:15:20;18.00;;;15.60;;
75984;SDS011;65033;44.660;37.758;2023-08-31T04:16:24;21.45;;;15.77;;
75984;SDS011;65033;44.660;37.758;2023-08-31T04:17:27;19.40;;;15.05;;
75984;SDS011;65033;44.660;37.758;2023-08-31T04:18:31;17.15;;;14.27;;
75984;SDS011;65033;44.660;37.758;2023-08-31T04:19:34;19.90;;;14.10;;
75984;SDS011;65033;44.660;37.758;2023-08-31T04:20:45;14.43;;;12.70;;
75984;SDS011;65033;44.660;37.758;2023-08-31T04:21:51;21.33;;;14.93;;
75984;SDS011;65033;44.660;37.758;2023-08-31T04:22:56;18.65;;;14.13;;
75984;SDS011;65033;44.660;37.758;2023-08-31T04:24:00;15.35;;;13.77;;
75984;SDS011;65033;44.660;37.758;2023-08-31T04:25:04;17.23;;;12.18;;
75984;SDS011;65033;44.660;37.758;2023-08-31T04:26:12;15.27;;;12.70;;
75984;SDS011;65033;44.660;37.758;2023-08-31T04:27:15;17.15;;;12.77;;
75984;SDS011;65033;44.660;37.758;2023-08-31T04:28:19;17.55;;;12.48;;
75984;SDS011;65033;44.660;37.758;2023-08-31T04:29:24;14.60;;;11.35;;
75984;SDS011;65033;44.660;37.758;2023-08-31T04:30:27;13.50;;;10.55;;
75984;SDS011;65033;44.660;37.758;2023-08-31T04:31:31;18.27;;;11.43;;
75984;SDS011;65033;44.660;37.758;2023-08-31T04:32:34;13.45;;;12.02;;
75984;SDS011;65033;44.660;37.758;2023-08-31T04:33:38;11.85;;;10.50;;
75984;SDS011;65033;44.660;37.758;2023-08-31T04:34:42;11.50;;;10.35;;
75984;SDS011;65033;44.660;37.758;2023-08-31T04:35:46;12.95;;;10.52;;
75984;SDS011;65033;44.660;37.758;2023-08-31T04:36:50;9.80;;;8.80;;
75984;SDS011;65033;44.660;37.758;2023-08-31T04:37:53;8.55;;;7.75;;
75984;SDS011;65033;44.660;37.758;2023-08-31T04:38:56;11.00;;;9.90;;
75984;SDS011;65033;44.660;37.758;2023-08-31T04:40:00;15.82;;;10.90;;
75984;SDS011;65033;44.660;37.758;2023-08-31T04:41:04;19.17;;;12.23;;
75984;SDS011;65033;44.660;37.758;2023-08-31T04:42:08;16.05;;;10.23;;
75984;SDS011;65033;44.660;37.758;2023-08-31T04:43:11;13.60;;;10.40;;
75984;SDS011;65033;44.660;37.758;2023-08-31T04:44:14;13.70;;;10.35;;
75984;SDS011;65033;44.660;37.758;2023-08-31T04:45:21;13.63;;;10.60;;
75984;SDS011;65033;44.660;37.758;2023-08-31T04:46:24;11.90;;;10.27;;
75984;SDS011;65033;44.660;37.758;2023-08-31T04:47:28;13.15;;;9.80;;
75984;SDS011;65033;44.660;37.758;2023-08-31T04:48:31;10.55;;;9.38;;
75984;SDS011;65033;44.660;37.758;2023-08-31T04:49:34;12.05;;;9.60;;
75984;SDS011;65033;44.660;37.758;2023-08-31T04:50:38;11.00;;;9.68;;
75984;SDS011;65033;44.660;37.758;2023-08-31T04:51:43;9.63;;;8.63;;
75984;SDS011;65033;44.660;37.758;2023-08-31T04:52:47;14.90;;;8.90;;
75984;SDS011;65033;44.660;37.758;2023-08-31T04:53:50;14.93;;;8.48;;
75984;SDS011;65033;44.660;37.758;2023-08-31T04:54:55;13.55;;;10.40;;
75984;SDS011;65033;44.660;37.758;2023-08-31T04:55:58;18.23;;;10.82;;
75984;SDS011;65033;44.660;37.758;2023-08-31T04:57:02;10.82;;;9.30;;
75984;SDS011;65033;44.660;37.758;2023-08-31T04:58:06;15.85;;;9.27;;
75984;SDS011;65033;44.660;37.758;2023-08-31T04:59:09;9.45;;;8.30;;
75984;SDS011;65033;44.660;37.758;2023-08-31T05:00:13;11.75;;;8.02;;
75984;SDS011;65033;44.660;37.758;2023-08-31T05:01:19;13.45;;;7.95;;
75984;SDS011;65033;44.660;37.758;2023-08-31T05:02:23;8.70;;;7.90;;
75984;SDS011;65033;44.660;37.758;2023-08-31T05:03:26;7.70;;;6.90;;
75984;SDS011;65033;44.660;37.758;2023-08-31T05:04:30;10.32;;;8.00;;
75984;SDS011;65033;44.660;37.758;2023-08-31T05:05:33;9.57;;;7.72;;
75984;SDS011;65033;44.660;37.758;2023-08-31T05:06:37;8.93;;;7.93;;
75984;SDS011;65033;44.660;37.758;2023-08-31T05:07:40;12.45;;;7.97;;
75984;SDS011;65033;44.660;37.758;2023-08-31T05:08:43;8.32;;;7.47;;
75984;SDS011;65033;44.660;37.758;2023-08-31T05:09:47;12.57;;;8.10;;
75984;SDS011;65033;44.660;37.758;2023-08-31T05:10:52;9.70;;;7.38;;
75984;SDS011;65033;44.660;37.758;2023-08-31T05:11:56;9.63;;;7.93;;
75984;SDS011;65033;44.660;37.758;2023-08-31T05:12:59;9.20;;;8.27;;
75984;SDS011;65033;44.660;37.758;2023-08-31T05:14:03;9.32;;;8.27;;
75984;SDS011;65033;44.660;37.758;2023-08-31T05:15:06;11.35;;;8.32;;
75984;SDS011;65033;44.660;37.758;2023-08-31T05:16:10;12.95;;;8.05;;
75984;SDS011;65033;44.660;37.758;2023-08-31T05:17:15;11.60;;;7.95;;
75984;SDS011;65033;44.660;37.758;2023-08-31T05:18:18;10.80;;;7.78;;
75984;SDS011;65033;44.660;37.758;2023-08-31T05:19:22;11.43;;;7.70;;
75984;SDS011;65033;44.660;37.758;2023-08-31T05:20:26;17.70;;;8.57;;
75984;SDS011;65033;44.660;37.758;2023-08-31T05:21:29;13.27;;;8.13;;
75984;SDS011;65033;44.660;37.758;2023-08-31T05:22:33;10.85;;;7.90;;
75984;SDS011;65033;44.660;37.758;2023-08-31T05:23:37;8.60;;;7.63;;
75984;SDS011;65033;44.660;37.758;2023-08-31T05:24:40;12.23;;;8.45;;
75984;SDS011;65033;44.660;37.758;2023-08-31T05:25:44;12.15;;;7.43;;
75984;SDS011;65033;44.660;37.758;2023-08-31T05:26:48;10.25;;;7.53;;
75984;SDS011;65033;44.660;37.758;2023-08-31T05:27:51;10.40;;;7.43;;
75984;SDS011;65033;44.660;37.758;2023-08-31T05:28:55;15.65;;;8.23;;
75984;SDS011;65033;44.660;37.758;2023-08-31T05:29:59;17.10;;;7.65;;
75984;SDS011;65033;44.660;37.758;2023-08-31T05:31:02;17.05;;;8.38;;
75984;SDS011;65033;44.660;37.758;2023-08-31T05:32:08;11.80;;;7.72;;
75984;SDS011;65033;44.660;37.758;2023-08-31T05:33:13;10.85;;;9.00;;
75984;SDS011;65033;44.660;37.758;2023-08-31T05:34:20;42.78;;;9.27;;
75984;SDS011;65033;44.660;37.758;2023-08-31T05:35:23;15.98;;;7.47;;
75984;SDS011;65033;44.660;37.758;2023-08-31T05:36:27;19.52;;;9.02;;
75984;SDS011;65033;44.660;37.758;2023-08-31T05:37:31;12.23;;;7.30;;
75984;SDS011;65033;44.660;37.758;2023-08-31T05:38:36;14.18;;;12.77;;
75984;SDS011;65033;44.660;37.758;2023-08-31T05:39:40;23.27;;;20.42;;
75984;SDS011;65033;44.660;37.758;2023-08-31T05:40:43;11.55;;;7.85;;
75984;SDS011;65033;44.660;37.758;2023-08-31T05:41:48;11.18;;;7.47;;
75984;SDS011;65033;44.660;37.758;2023-08-31T05:42:52;11.93;;;7.70;;
75984;SDS011;65033;44.660;37.758;2023-08-31T05:43:55;12.68;;;7.57;;
75984;SDS011;65033;44.660;37.758;2023-08-31T05:44:58;9.68;;;6.82;;
75984;SDS011;65033;44.660;37.758;2023-08-31T05:46:02;9.02;;;6.95;;
75984;SDS011;65033;44.660;37.758;2023-08-31T05:47:05;11.27;;;6.72;;
75984;SDS011;65033;44.660;37.758;2023-08-31T05:48:08;16.13;;;7.03;;
75984;SDS011;65033;44.660;37.758;2023-08-31T05:49:14;7.97;;;7.05;;
75984;SDS011;65033;44.660;37.758;2023-08-31T05:50:17;9.30;;;6.78;;
75984;SDS011;65033;44.660;37.758;2023-08-31T05:51:21;13.27;;;8.00;;
75984;SDS011;65033;44.660;37.758;2023-08-31T05:52:24;7.90;;;7.20;;
75984;SDS011;65033;44.660;37.758;2023-08-31T05:53:28;9.23;;;6.80;;
75984;SDS011;65033;44.660;37.758;2023-08-31T05:54:32;14.95;;;6.68;;
75984;SDS011;65033;44.660;37.758;2023-08-31T05:55:35;8.80;;;6.90;;
75984;SDS011;65033;44.660;37.758;2023-08-31T05:56:39;29.30;;;7.82;;
75984;SDS011;65033;44.660;37.758;2023-08-31T05:57:43;8.00;;;6.35;;
75984;SDS011;65033;44.660;37.758;2023-08-31T05:58:46;9.32;;;6.45;;
75984;SDS011;65033;44.660;37.758;2023-08-31T05:59:50;20.45;;;7.60;;
75984;SDS011;65033;44.660;37.758;2023-08-31T06:00:53;12.80;;;6.85;;
75984;SDS011;65033;44.660;37.758;2023-08-31T06:01:56;6.38;;;5.70;;
75984;SDS011;65033;44.660;37.758;2023-08-31T06:03:00;7.13;;;5.88;;
75984;SDS011;65033;44.660;37.758;2023-08-31T06:04:08;9.10;;;6.10;;
75984;SDS011;65033;44.660;37.758;2023-08-31T06:05:13;12.45;;;6.43;;
75984;SDS011;65033;44.660;37.758;2023-08-31T06:06:20;8.93;;;5.90;;
75984;SDS011;65033;44.660;37.758;2023-08-31T06:07:24;8.25;;;5.88;;
75984;SDS011;65033;44.660;37.758;2023-08-31T06:08:27;13.50;;;6.47;;
75984;SDS011;65033;44.660;37.758;2023-08-31T06:09:32;21.40;;;6.43;;
75984;SDS011;65033;44.660;37.758;2023-08-31T06:10:35;30.77;;;25.60;;
75984;SDS011;65033;44.660;37.758;2023-08-31T06:11:38;25.45;;;21.83;;
75984;SDS011;65033;44.660;37.758;2023-08-31T06:12:43;20.80;;;7.03;;
75984;SDS011;65033;44.660;37.758;2023-08-31T06:13:46;17.63;;;6.60;;
75984;SDS011;65033;44.660;37.758;2023-08-31T06:14:50;11.52;;;6.28;;
75984;SDS011;65033;44.660;37.758;2023-08-31T06:15:53;20.38;;;6.93;;
75984;SDS011;65033;44.660;37.758;2023-08-31T06:16:58;8.45;;;6.15;;
75984;SDS011;65033;44.660;37.758;2023-08-31T06:18:01;9.95;;;5.78;;